<?xml version="1.0" encoding="UTF-8" standalone="no" ?>
<gpx xmlns="http://www.topografix.com/GPX/1/1" xmlns:xsi="http://www.w3.org/2001/XMLSchema-instance" xsi:schemaLocation="http://www.topografix.com/GPX/1/1 http://www.topografix.com/GPX/1/1/gpx.xsd" version="1.1" creator="VisuGPX - https://www.visugpx.com">
  <metadata>
    <name>Les Robinots - Col de la Plantade (03-63)</name>
    <desc><![CDATA[Ce circuit n'est pas balisé, il utilise de grands chemins forestiers. 
A faire avec la carte en main ou gps avec appli rando.]]></desc>
  </metadata>
  <trk>
    <name><![CDATA[les robinots 2-20202775]]></name>
    <trkseg>
      <trkpt lat="45.9594" lon="3.63104">
        <ele>888</ele>
        <time>2024-11-05T04:55:24Z</time>
      </trkpt>
      <trkpt lat="45.95935" lon="3.63111">
        <ele>888</ele>
        <time>2024-11-05T04:55:33Z</time>
      </trkpt>
      <trkpt lat="45.95955" lon="3.63153">
        <ele>887</ele>
        <time>2024-11-05T04:56:21Z</time>
      </trkpt>
      <trkpt lat="45.95978" lon="3.63169">
        <ele>886</ele>
        <time>2024-11-05T04:56:55Z</time>
      </trkpt>
      <trkpt lat="45.96016" lon="3.63183">
        <ele>884</ele>
        <time>2024-11-05T04:57:47Z</time>
      </trkpt>
      <trkpt lat="45.9608" lon="3.63189">
        <ele>883</ele>
        <time>2024-11-05T04:59:13Z</time>
      </trkpt>
      <trkpt lat="45.96089" lon="3.63192">
        <ele>882</ele>
        <time>2024-11-05T04:59:25Z</time>
      </trkpt>
      <trkpt lat="45.96096" lon="3.63196">
        <ele>881</ele>
        <time>2024-11-05T04:59:35Z</time>
      </trkpt>
      <trkpt lat="45.96111" lon="3.63214">
        <ele>877</ele>
        <time>2024-11-05T05:00:01Z</time>
      </trkpt>
      <trkpt lat="45.96119" lon="3.63204">
        <ele>879</ele>
        <time>2024-11-05T05:00:15Z</time>
      </trkpt>
      <trkpt lat="45.96111" lon="3.63214">
        <ele>877</ele>
        <time>2024-11-05T05:00:29Z</time>
      </trkpt>
      <trkpt lat="45.96134" lon="3.63264">
        <ele>872</ele>
        <time>2024-11-05T05:01:25Z</time>
      </trkpt>
      <trkpt lat="45.9614" lon="3.6328">
        <ele>873</ele>
        <time>2024-11-05T05:01:42Z</time>
      </trkpt>
      <trkpt lat="45.96165" lon="3.63346">
        <ele>877</ele>
        <time>2024-11-05T05:02:52Z</time>
      </trkpt>
      <trkpt lat="45.96195" lon="3.63417">
        <ele>883</ele>
        <time>2024-11-05T05:04:09Z</time>
      </trkpt>
      <trkpt lat="45.96336" lon="3.63646">
        <ele>894</ele>
        <time>2024-11-05T05:08:52Z</time>
      </trkpt>
      <trkpt lat="45.9635" lon="3.63668">
        <ele>895</ele>
        <time>2024-11-05T05:09:20Z</time>
      </trkpt>
      <trkpt lat="45.96389" lon="3.63717">
        <ele>900</ele>
        <time>2024-11-05T05:10:29Z</time>
      </trkpt>
      <trkpt lat="45.96417" lon="3.6375">
        <ele>903</ele>
        <time>2024-11-05T05:11:17Z</time>
      </trkpt>
      <trkpt lat="45.96447" lon="3.63781">
        <ele>908</ele>
        <time>2024-11-05T05:12:07Z</time>
      </trkpt>
      <trkpt lat="45.96493" lon="3.63845">
        <ele>916</ele>
        <time>2024-11-05T05:13:32Z</time>
      </trkpt>
      <trkpt lat="45.96562" lon="3.63921">
        <ele>927</ele>
        <time>2024-11-05T05:15:28Z</time>
      </trkpt>
      <trkpt lat="45.96604" lon="3.63968">
        <ele>933</ele>
        <time>2024-11-05T05:16:39Z</time>
      </trkpt>
      <trkpt lat="45.96607" lon="3.63973">
        <ele>933</ele>
        <time>2024-11-05T05:16:45Z</time>
      </trkpt>
      <trkpt lat="45.96611" lon="3.63982">
        <ele>934</ele>
        <time>2024-11-05T05:16:55Z</time>
      </trkpt>
      <trkpt lat="45.96611" lon="3.6405">
        <ele>938</ele>
        <time>2024-11-05T05:17:58Z</time>
      </trkpt>
      <trkpt lat="45.9662" lon="3.64073">
        <ele>940</ele>
        <time>2024-11-05T05:18:23Z</time>
      </trkpt>
      <trkpt lat="45.96624" lon="3.64078">
        <ele>941</ele>
        <time>2024-11-05T05:18:30Z</time>
      </trkpt>
      <trkpt lat="45.96646" lon="3.64109">
        <ele>943</ele>
        <time>2024-11-05T05:19:11Z</time>
      </trkpt>
      <trkpt lat="45.96687" lon="3.64152">
        <ele>946</ele>
        <time>2024-11-05T05:20:19Z</time>
      </trkpt>
      <trkpt lat="45.96707" lon="3.64198">
        <ele>947</ele>
        <time>2024-11-05T05:21:09Z</time>
      </trkpt>
      <trkpt lat="45.96708" lon="3.64202">
        <ele>947</ele>
        <time>2024-11-05T05:21:13Z</time>
      </trkpt>
      <trkpt lat="45.9671" lon="3.64234">
        <ele>946</ele>
        <time>2024-11-05T05:21:43Z</time>
      </trkpt>
      <trkpt lat="45.96735" lon="3.64298">
        <ele>942</ele>
        <time>2024-11-05T05:22:51Z</time>
      </trkpt>
      <trkpt lat="45.9674" lon="3.64314">
        <ele>940</ele>
        <time>2024-11-05T05:23:07Z</time>
      </trkpt>
      <trkpt lat="45.96739" lon="3.64325">
        <ele>939</ele>
        <time>2024-11-05T05:23:17Z</time>
      </trkpt>
      <trkpt lat="45.96734" lon="3.64341">
        <ele>937</ele>
        <time>2024-11-05T05:23:34Z</time>
      </trkpt>
      <trkpt lat="45.96733" lon="3.64344">
        <ele>937</ele>
        <time>2024-11-05T05:23:37Z</time>
      </trkpt>
      <trkpt lat="45.96719" lon="3.64363">
        <ele>935</ele>
        <time>2024-11-05T05:24:02Z</time>
      </trkpt>
      <trkpt lat="45.96696" lon="3.64419">
        <ele>930</ele>
        <time>2024-11-05T05:25:03Z</time>
      </trkpt>
      <trkpt lat="45.96691" lon="3.64455">
        <ele>928</ele>
        <time>2024-11-05T05:25:37Z</time>
      </trkpt>
      <trkpt lat="45.96664" lon="3.64549">
        <ele>928</ele>
        <time>2024-11-05T05:27:11Z</time>
      </trkpt>
      <trkpt lat="45.96654" lon="3.64596">
        <ele>930</ele>
        <time>2024-11-05T05:27:57Z</time>
      </trkpt>
      <trkpt lat="45.96638" lon="3.64639">
        <ele>934</ele>
        <time>2024-11-05T05:28:42Z</time>
      </trkpt>
      <trkpt lat="45.96616" lon="3.64763">
        <ele>934</ele>
        <time>2024-11-05T05:30:41Z</time>
      </trkpt>
      <trkpt lat="45.96606" lon="3.64805">
        <ele>933</ele>
        <time>2024-11-05T05:31:22Z</time>
      </trkpt>
      <trkpt lat="45.96593" lon="3.64837">
        <ele>934</ele>
        <time>2024-11-05T05:31:56Z</time>
      </trkpt>
      <trkpt lat="45.96566" lon="3.64964">
        <ele>938</ele>
        <time>2024-11-05T05:33:59Z</time>
      </trkpt>
      <trkpt lat="45.9656" lon="3.64994">
        <ele>940</ele>
        <time>2024-11-05T05:34:28Z</time>
      </trkpt>
      <trkpt lat="45.96563" lon="3.65017">
        <ele>940</ele>
        <time>2024-11-05T05:34:50Z</time>
      </trkpt>
      <trkpt lat="45.96568" lon="3.65031">
        <ele>939</ele>
        <time>2024-11-05T05:35:05Z</time>
      </trkpt>
      <trkpt lat="45.96569" lon="3.65052">
        <ele>940</ele>
        <time>2024-11-05T05:35:24Z</time>
      </trkpt>
      <trkpt lat="45.96569" lon="3.65121">
        <ele>941</ele>
        <time>2024-11-05T05:36:28Z</time>
      </trkpt>
      <trkpt lat="45.96571" lon="3.6517">
        <ele>940</ele>
        <time>2024-11-05T05:37:14Z</time>
      </trkpt>
      <trkpt lat="45.96584" lon="3.65275">
        <ele>934</ele>
        <time>2024-11-05T05:38:53Z</time>
      </trkpt>
      <trkpt lat="45.96585" lon="3.65309">
        <ele>935</ele>
        <time>2024-11-05T05:39:24Z</time>
      </trkpt>
      <trkpt lat="45.96576" lon="3.65429">
        <ele>937</ele>
        <time>2024-11-05T05:41:16Z</time>
      </trkpt>
      <trkpt lat="45.96573" lon="3.65452">
        <ele>938</ele>
        <time>2024-11-05T05:41:38Z</time>
      </trkpt>
      <trkpt lat="45.96573" lon="3.65469">
        <ele>938</ele>
        <time>2024-11-05T05:41:54Z</time>
      </trkpt>
      <trkpt lat="45.96575" lon="3.65491">
        <ele>938</ele>
        <time>2024-11-05T05:42:14Z</time>
      </trkpt>
      <trkpt lat="45.96576" lon="3.65498">
        <ele>938</ele>
        <time>2024-11-05T05:42:21Z</time>
      </trkpt>
      <trkpt lat="45.96591" lon="3.65546">
        <ele>941</ele>
        <time>2024-11-05T05:43:10Z</time>
      </trkpt>
      <trkpt lat="45.96593" lon="3.6556">
        <ele>943</ele>
        <time>2024-11-05T05:43:23Z</time>
      </trkpt>
      <trkpt lat="45.96592" lon="3.65621">
        <ele>948</ele>
        <time>2024-11-05T05:44:19Z</time>
      </trkpt>
      <trkpt lat="45.96585" lon="3.65705">
        <ele>953</ele>
        <time>2024-11-05T05:45:38Z</time>
      </trkpt>
      <trkpt lat="45.9657" lon="3.65739">
        <ele>954</ele>
        <time>2024-11-05T05:46:15Z</time>
      </trkpt>
      <trkpt lat="45.96562" lon="3.65766">
        <ele>955</ele>
        <time>2024-11-05T05:46:43Z</time>
      </trkpt>
      <trkpt lat="45.9652" lon="3.65861">
        <ele>957</ele>
        <time>2024-11-05T05:48:27Z</time>
      </trkpt>
      <trkpt lat="45.9652" lon="3.65861">
        <ele>957</ele>
        <time>2024-11-05T05:48:27Z</time>
      </trkpt>
      <trkpt lat="45.96493" lon="3.65928">
        <ele>958</ele>
        <time>2024-11-05T05:49:39Z</time>
      </trkpt>
      <trkpt lat="45.96489" lon="3.6596">
        <ele>959</ele>
        <time>2024-11-05T05:50:09Z</time>
      </trkpt>
      <trkpt lat="45.9649" lon="3.65983">
        <ele>959</ele>
        <time>2024-11-05T05:50:30Z</time>
      </trkpt>
      <trkpt lat="45.96502" lon="3.66011">
        <ele>958</ele>
        <time>2024-11-05T05:51:01Z</time>
      </trkpt>
      <trkpt lat="45.96513" lon="3.66041">
        <ele>958</ele>
        <time>2024-11-05T05:51:32Z</time>
      </trkpt>
      <trkpt lat="45.96519" lon="3.66055">
        <ele>958</ele>
        <time>2024-11-05T05:51:48Z</time>
      </trkpt>
      <trkpt lat="45.96524" lon="3.66106">
        <ele>959</ele>
        <time>2024-11-05T05:52:35Z</time>
      </trkpt>
      <trkpt lat="45.96541" lon="3.6618">
        <ele>959</ele>
        <time>2024-11-05T05:53:48Z</time>
      </trkpt>
      <trkpt lat="45.96554" lon="3.66245">
        <ele>963</ele>
        <time>2024-11-05T05:54:50Z</time>
      </trkpt>
      <trkpt lat="45.96567" lon="3.66295">
        <ele>970</ele>
        <time>2024-11-05T05:55:40Z</time>
      </trkpt>
      <trkpt lat="45.96598" lon="3.66397">
        <ele>984</ele>
        <time>2024-11-05T05:57:23Z</time>
      </trkpt>
      <trkpt lat="45.96634" lon="3.665">
        <ele>991</ele>
        <time>2024-11-05T05:59:10Z</time>
      </trkpt>
      <trkpt lat="45.96642" lon="3.66528">
        <ele>992</ele>
        <time>2024-11-05T05:59:38Z</time>
      </trkpt>
      <trkpt lat="45.96638" lon="3.66582">
        <ele>998</ele>
        <time>2024-11-05T06:00:29Z</time>
      </trkpt>
      <trkpt lat="45.96634" lon="3.66606">
        <ele>1000</ele>
        <time>2024-11-05T06:00:51Z</time>
      </trkpt>
      <trkpt lat="45.96633" lon="3.66667">
        <ele>1005</ele>
        <time>2024-11-05T06:01:48Z</time>
      </trkpt>
      <trkpt lat="45.96634" lon="3.66703">
        <ele>1006</ele>
        <time>2024-11-05T06:02:21Z</time>
      </trkpt>
      <trkpt lat="45.96631" lon="3.66852">
        <ele>1009</ele>
        <time>2024-11-05T06:04:40Z</time>
      </trkpt>
      <trkpt lat="45.96625" lon="3.66889">
        <ele>1011</ele>
        <time>2024-11-05T06:05:15Z</time>
      </trkpt>
      <trkpt lat="45.96621" lon="3.66935">
        <ele>1012</ele>
        <time>2024-11-05T06:05:58Z</time>
      </trkpt>
      <trkpt lat="45.96625" lon="3.66976">
        <ele>1013</ele>
        <time>2024-11-05T06:06:36Z</time>
      </trkpt>
      <trkpt lat="45.96639" lon="3.67029">
        <ele>1013</ele>
        <time>2024-11-05T06:07:29Z</time>
      </trkpt>
      <trkpt lat="45.96681" lon="3.67162">
        <ele>1014</ele>
        <time>2024-11-05T06:09:44Z</time>
      </trkpt>
      <trkpt lat="45.96716" lon="3.67225">
        <ele>1013</ele>
        <time>2024-11-05T06:10:59Z</time>
      </trkpt>
      <trkpt lat="45.96758" lon="3.67287">
        <ele>1011</ele>
        <time>2024-11-05T06:12:20Z</time>
      </trkpt>
      <trkpt lat="45.96781" lon="3.67328">
        <ele>1011</ele>
        <time>2024-11-05T06:13:08Z</time>
      </trkpt>
      <trkpt lat="45.96791" lon="3.67349">
        <ele>1010</ele>
        <time>2024-11-05T06:13:32Z</time>
      </trkpt>
      <trkpt lat="45.96793" lon="3.67363">
        <ele>1010</ele>
        <time>2024-11-05T06:13:45Z</time>
      </trkpt>
      <trkpt lat="45.9679" lon="3.67369">
        <ele>1010</ele>
        <time>2024-11-05T06:13:52Z</time>
      </trkpt>
      <trkpt lat="45.96789" lon="3.67371">
        <ele>1010</ele>
        <time>2024-11-05T06:13:54Z</time>
      </trkpt>
      <trkpt lat="45.96759" lon="3.67357">
        <ele>1012</ele>
        <time>2024-11-05T06:14:36Z</time>
      </trkpt>
      <trkpt lat="45.96697" lon="3.67333">
        <ele>1023</ele>
        <time>2024-11-05T06:16:02Z</time>
      </trkpt>
      <trkpt lat="45.96669" lon="3.67319">
        <ele>1027</ele>
        <time>2024-11-05T06:16:42Z</time>
      </trkpt>
      <trkpt lat="45.96575" lon="3.67228">
        <ele>1043</ele>
        <time>2024-11-05T06:19:13Z</time>
      </trkpt>
      <trkpt lat="45.96543" lon="3.6716">
        <ele>1046</ele>
        <time>2024-11-05T06:20:29Z</time>
      </trkpt>
      <trkpt lat="45.96521" lon="3.67118">
        <ele>1048</ele>
        <time>2024-11-05T06:21:18Z</time>
      </trkpt>
      <trkpt lat="45.96509" lon="3.6709">
        <ele>1049</ele>
        <time>2024-11-05T06:21:48Z</time>
      </trkpt>
      <trkpt lat="45.96501" lon="3.67056">
        <ele>1049</ele>
        <time>2024-11-05T06:22:22Z</time>
      </trkpt>
      <trkpt lat="45.96489" lon="3.67032">
        <ele>1051</ele>
        <time>2024-11-05T06:22:49Z</time>
      </trkpt>
      <trkpt lat="45.96463" lon="3.67008">
        <ele>1056</ele>
        <time>2024-11-05T06:23:30Z</time>
      </trkpt>
      <trkpt lat="45.96445" lon="3.6698">
        <ele>1061</ele>
        <time>2024-11-05T06:24:06Z</time>
      </trkpt>
      <trkpt lat="45.96423" lon="3.66938">
        <ele>1065</ele>
        <time>2024-11-05T06:24:54Z</time>
      </trkpt>
      <trkpt lat="45.96397" lon="3.66856">
        <ele>1067</ele>
        <time>2024-11-05T06:26:18Z</time>
      </trkpt>
      <trkpt lat="45.96382" lon="3.66832">
        <ele>1068</ele>
        <time>2024-11-05T06:26:48Z</time>
      </trkpt>
      <trkpt lat="45.96365" lon="3.66815">
        <ele>1069</ele>
        <time>2024-11-05T06:27:16Z</time>
      </trkpt>
      <trkpt lat="45.96293" lon="3.66788">
        <ele>1077</ele>
        <time>2024-11-05T06:28:55Z</time>
      </trkpt>
      <trkpt lat="45.9625" lon="3.66752">
        <ele>1081</ele>
        <time>2024-11-05T06:30:01Z</time>
      </trkpt>
      <trkpt lat="45.96162" lon="3.66694">
        <ele>1085</ele>
        <time>2024-11-05T06:32:11Z</time>
      </trkpt>
      <trkpt lat="45.96161" lon="3.66692">
        <ele>1085</ele>
        <time>2024-11-05T06:32:13Z</time>
      </trkpt>
      <trkpt lat="45.96151" lon="3.66682">
        <ele>1084</ele>
        <time>2024-11-05T06:32:29Z</time>
      </trkpt>
      <trkpt lat="45.96105" lon="3.66661">
        <ele>1083</ele>
        <time>2024-11-05T06:33:33Z</time>
      </trkpt>
      <trkpt lat="45.96065" lon="3.66654">
        <ele>1082</ele>
        <time>2024-11-05T06:34:27Z</time>
      </trkpt>
      <trkpt lat="45.96019" lon="3.66665">
        <ele>1082</ele>
        <time>2024-11-05T06:35:29Z</time>
      </trkpt>
      <trkpt lat="45.95999" lon="3.66657">
        <ele>1080</ele>
        <time>2024-11-05T06:35:57Z</time>
      </trkpt>
      <trkpt lat="45.95964" lon="3.66624">
        <ele>1076</ele>
        <time>2024-11-05T06:36:53Z</time>
      </trkpt>
      <trkpt lat="45.9593" lon="3.66612">
        <ele>1074</ele>
        <time>2024-11-05T06:37:40Z</time>
      </trkpt>
      <trkpt lat="45.95879" lon="3.66604">
        <ele>1073</ele>
        <time>2024-11-05T06:38:48Z</time>
      </trkpt>
      <trkpt lat="45.95843" lon="3.66592">
        <ele>1073</ele>
        <time>2024-11-05T06:39:37Z</time>
      </trkpt>
      <trkpt lat="45.95789" lon="3.66602">
        <ele>1072</ele>
        <time>2024-11-05T06:40:50Z</time>
      </trkpt>
      <trkpt lat="45.95746" lon="3.66586">
        <ele>1069</ele>
        <time>2024-11-05T06:41:49Z</time>
      </trkpt>
      <trkpt lat="45.95727" lon="3.66588">
        <ele>1067</ele>
        <time>2024-11-05T06:42:15Z</time>
      </trkpt>
      <trkpt lat="45.95703" lon="3.66604">
        <ele>1067</ele>
        <time>2024-11-05T06:42:50Z</time>
      </trkpt>
      <trkpt lat="45.95648" lon="3.6664">
        <ele>1068</ele>
        <time>2024-11-05T06:44:11Z</time>
      </trkpt>
      <trkpt lat="45.9562" lon="3.66666">
        <ele>1069</ele>
        <time>2024-11-05T06:44:55Z</time>
      </trkpt>
      <trkpt lat="45.95584" lon="3.66662">
        <ele>1066</ele>
        <time>2024-11-05T06:45:43Z</time>
      </trkpt>
      <trkpt lat="45.95533" lon="3.66693">
        <ele>1068</ele>
        <time>2024-11-05T06:46:57Z</time>
      </trkpt>
      <trkpt lat="45.95444" lon="3.66703">
        <ele>1072</ele>
        <time>2024-11-05T06:48:56Z</time>
      </trkpt>
      <trkpt lat="45.95387" lon="3.66686">
        <ele>1072</ele>
        <time>2024-11-05T06:50:14Z</time>
      </trkpt>
      <trkpt lat="45.95345" lon="3.66682">
        <ele>1073</ele>
        <time>2024-11-05T06:51:10Z</time>
      </trkpt>
      <trkpt lat="45.95313" lon="3.66654">
        <ele>1072</ele>
        <time>2024-11-05T06:52:00Z</time>
      </trkpt>
      <trkpt lat="45.95206" lon="3.66518">
        <ele>1068</ele>
        <time>2024-11-05T06:55:11Z</time>
      </trkpt>
      <trkpt lat="45.95167" lon="3.66452">
        <ele>1067</ele>
        <time>2024-11-05T06:56:31Z</time>
      </trkpt>
      <trkpt lat="45.95192" lon="3.66436">
        <ele>1065</ele>
        <time>2024-11-05T06:57:08Z</time>
      </trkpt>
      <trkpt lat="45.95248" lon="3.66414">
        <ele>1064</ele>
        <time>2024-11-05T06:58:25Z</time>
      </trkpt>
      <trkpt lat="45.95274" lon="3.66407">
        <ele>1062</ele>
        <time>2024-11-05T06:59:00Z</time>
      </trkpt>
      <trkpt lat="45.95297" lon="3.66394">
        <ele>1060</ele>
        <time>2024-11-05T06:59:33Z</time>
      </trkpt>
      <trkpt lat="45.95315" lon="3.66374">
        <ele>1060</ele>
        <time>2024-11-05T07:00:04Z</time>
      </trkpt>
      <trkpt lat="45.9533" lon="3.66362">
        <ele>1059</ele>
        <time>2024-11-05T07:00:27Z</time>
      </trkpt>
      <trkpt lat="45.95343" lon="3.66359">
        <ele>1057</ele>
        <time>2024-11-05T07:00:44Z</time>
      </trkpt>
      <trkpt lat="45.95354" lon="3.66322">
        <ele>1056</ele>
        <time>2024-11-05T07:01:22Z</time>
      </trkpt>
      <trkpt lat="45.95394" lon="3.66288">
        <ele>1048</ele>
        <time>2024-11-05T07:02:24Z</time>
      </trkpt>
      <trkpt lat="45.95402" lon="3.66263">
        <ele>1047</ele>
        <time>2024-11-05T07:02:49Z</time>
      </trkpt>
      <trkpt lat="45.95422" lon="3.66261">
        <ele>1044</ele>
        <time>2024-11-05T07:03:16Z</time>
      </trkpt>
      <trkpt lat="45.95452" lon="3.66275">
        <ele>1043</ele>
        <time>2024-11-05T07:03:58Z</time>
      </trkpt>
      <trkpt lat="45.95482" lon="3.66271">
        <ele>1042</ele>
        <time>2024-11-05T07:04:38Z</time>
      </trkpt>
      <trkpt lat="45.955" lon="3.66254">
        <ele>1042</ele>
        <time>2024-11-05T07:05:07Z</time>
      </trkpt>
      <trkpt lat="45.95508" lon="3.66241">
        <ele>1043</ele>
        <time>2024-11-05T07:05:23Z</time>
      </trkpt>
      <trkpt lat="45.95509" lon="3.66239">
        <ele>1043</ele>
        <time>2024-11-05T07:05:25Z</time>
      </trkpt>
      <trkpt lat="45.95512" lon="3.66225">
        <ele>1044</ele>
        <time>2024-11-05T07:05:39Z</time>
      </trkpt>
      <trkpt lat="45.95506" lon="3.66205">
        <ele>1043</ele>
        <time>2024-11-05T07:05:59Z</time>
      </trkpt>
      <trkpt lat="45.95522" lon="3.66158">
        <ele>1045</ele>
        <time>2024-11-05T07:06:48Z</time>
      </trkpt>
      <trkpt lat="45.95533" lon="3.66136">
        <ele>1045</ele>
        <time>2024-11-05T07:07:13Z</time>
      </trkpt>
      <trkpt lat="45.95544" lon="3.66093">
        <ele>1044</ele>
        <time>2024-11-05T07:07:55Z</time>
      </trkpt>
      <trkpt lat="45.95556" lon="3.6606">
        <ele>1045</ele>
        <time>2024-11-05T07:08:30Z</time>
      </trkpt>
      <trkpt lat="45.95572" lon="3.66044">
        <ele>1047</ele>
        <time>2024-11-05T07:08:56Z</time>
      </trkpt>
      <trkpt lat="45.956" lon="3.65934">
        <ele>1047</ele>
        <time>2024-11-05T07:10:45Z</time>
      </trkpt>
      <trkpt lat="45.95603" lon="3.65953">
        <ele>1048</ele>
        <time>2024-11-05T07:11:03Z</time>
      </trkpt>
      <trkpt lat="45.956" lon="3.65934">
        <ele>1047</ele>
        <time>2024-11-05T07:11:21Z</time>
      </trkpt>
      <trkpt lat="45.95601" lon="3.65896">
        <ele>1045</ele>
        <time>2024-11-05T07:11:56Z</time>
      </trkpt>
      <trkpt lat="45.95614" lon="3.65824">
        <ele>1043</ele>
        <time>2024-11-05T07:13:05Z</time>
      </trkpt>
      <trkpt lat="45.95626" lon="3.6579">
        <ele>1042</ele>
        <time>2024-11-05T07:13:40Z</time>
      </trkpt>
      <trkpt lat="45.95717" lon="3.65689">
        <ele>1036</ele>
        <time>2024-11-05T07:16:14Z</time>
      </trkpt>
      <trkpt lat="45.95727" lon="3.65674">
        <ele>1034</ele>
        <time>2024-11-05T07:16:33Z</time>
      </trkpt>
      <trkpt lat="45.95736" lon="3.6566">
        <ele>1033</ele>
        <time>2024-11-05T07:16:51Z</time>
      </trkpt>
      <trkpt lat="45.95759" lon="3.65651">
        <ele>1032</ele>
        <time>2024-11-05T07:17:23Z</time>
      </trkpt>
      <trkpt lat="45.95819" lon="3.6564">
        <ele>1028</ele>
        <time>2024-11-05T07:18:43Z</time>
      </trkpt>
      <trkpt lat="45.95848" lon="3.6563">
        <ele>1025</ele>
        <time>2024-11-05T07:19:23Z</time>
      </trkpt>
      <trkpt lat="45.95895" lon="3.65583">
        <ele>1020</ele>
        <time>2024-11-05T07:20:39Z</time>
      </trkpt>
      <trkpt lat="45.95912" lon="3.6556">
        <ele>1018</ele>
        <time>2024-11-05T07:21:11Z</time>
      </trkpt>
      <trkpt lat="45.95925" lon="3.65543">
        <ele>1016</ele>
        <time>2024-11-05T07:21:34Z</time>
      </trkpt>
      <trkpt lat="45.95952" lon="3.65527">
        <ele>1012</ele>
        <time>2024-11-05T07:22:13Z</time>
      </trkpt>
      <trkpt lat="45.96029" lon="3.65512">
        <ele>1004</ele>
        <time>2024-11-05T07:23:57Z</time>
      </trkpt>
      <trkpt lat="45.96049" lon="3.65516">
        <ele>1003</ele>
        <time>2024-11-05T07:24:24Z</time>
      </trkpt>
      <trkpt lat="45.9608" lon="3.65506">
        <ele>1000</ele>
        <time>2024-11-05T07:25:06Z</time>
      </trkpt>
      <trkpt lat="45.96092" lon="3.6549">
        <ele>998</ele>
        <time>2024-11-05T07:25:28Z</time>
      </trkpt>
      <trkpt lat="45.96109" lon="3.6545">
        <ele>995</ele>
        <time>2024-11-05T07:26:11Z</time>
      </trkpt>
      <trkpt lat="45.96137" lon="3.65366">
        <ele>988</ele>
        <time>2024-11-05T07:27:38Z</time>
      </trkpt>
      <trkpt lat="45.96143" lon="3.6536">
        <ele>988</ele>
        <time>2024-11-05T07:27:48Z</time>
      </trkpt>
      <trkpt lat="45.96157" lon="3.65345">
        <ele>987</ele>
        <time>2024-11-05T07:28:11Z</time>
      </trkpt>
      <trkpt lat="45.96196" lon="3.65294">
        <ele>981</ele>
        <time>2024-11-05T07:29:21Z</time>
      </trkpt>
      <trkpt lat="45.96237" lon="3.65265">
        <ele>978</ele>
        <time>2024-11-05T07:30:22Z</time>
      </trkpt>
      <trkpt lat="45.96274" lon="3.65147">
        <ele>971</ele>
        <time>2024-11-05T07:32:22Z</time>
      </trkpt>
      <trkpt lat="45.9629" lon="3.65012">
        <ele>972</ele>
        <time>2024-11-05T07:34:29Z</time>
      </trkpt>
      <trkpt lat="45.96292" lon="3.64999">
        <ele>973</ele>
        <time>2024-11-05T07:34:42Z</time>
      </trkpt>
      <trkpt lat="45.96279" lon="3.64917">
        <ele>976</ele>
        <time>2024-11-05T07:36:00Z</time>
      </trkpt>
      <trkpt lat="45.96268" lon="3.64882">
        <ele>979</ele>
        <time>2024-11-05T07:36:35Z</time>
      </trkpt>
      <trkpt lat="45.96239" lon="3.64806">
        <ele>982</ele>
        <time>2024-11-05T07:37:56Z</time>
      </trkpt>
      <trkpt lat="45.96209" lon="3.64754">
        <ele>979</ele>
        <time>2024-11-05T07:38:58Z</time>
      </trkpt>
      <trkpt lat="45.96202" lon="3.64731">
        <ele>979</ele>
        <time>2024-11-05T07:39:22Z</time>
      </trkpt>
      <trkpt lat="45.96189" lon="3.6469">
        <ele>977</ele>
        <time>2024-11-05T07:40:03Z</time>
      </trkpt>
      <trkpt lat="45.96179" lon="3.64569">
        <ele>973</ele>
        <time>2024-11-05T07:41:56Z</time>
      </trkpt>
      <trkpt lat="45.96181" lon="3.64521">
        <ele>971</ele>
        <time>2024-11-05T07:42:41Z</time>
      </trkpt>
      <trkpt lat="45.96188" lon="3.6447">
        <ele>969</ele>
        <time>2024-11-05T07:43:29Z</time>
      </trkpt>
      <trkpt lat="45.96197" lon="3.64423">
        <ele>966</ele>
        <time>2024-11-05T07:44:15Z</time>
      </trkpt>
      <trkpt lat="45.96232" lon="3.64354">
        <ele>959</ele>
        <time>2024-11-05T07:45:34Z</time>
      </trkpt>
      <trkpt lat="45.96262" lon="3.64328">
        <ele>956</ele>
        <time>2024-11-05T07:46:21Z</time>
      </trkpt>
      <trkpt lat="45.96315" lon="3.643">
        <ele>954</ele>
        <time>2024-11-05T07:47:36Z</time>
      </trkpt>
      <trkpt lat="45.9638" lon="3.64267">
        <ele>953</ele>
        <time>2024-11-05T07:49:08Z</time>
      </trkpt>
      <trkpt lat="45.96441" lon="3.64227">
        <ele>950</ele>
        <time>2024-11-05T07:50:37Z</time>
      </trkpt>
      <trkpt lat="45.96458" lon="3.64209">
        <ele>947</ele>
        <time>2024-11-05T07:51:05Z</time>
      </trkpt>
      <trkpt lat="45.96526" lon="3.64177">
        <ele>943</ele>
        <time>2024-11-05T07:52:41Z</time>
      </trkpt>
      <trkpt lat="45.96562" lon="3.64175">
        <ele>943</ele>
        <time>2024-11-05T07:53:29Z</time>
      </trkpt>
      <trkpt lat="45.96583" lon="3.64163">
        <ele>942</ele>
        <time>2024-11-05T07:53:59Z</time>
      </trkpt>
      <trkpt lat="45.96598" lon="3.64138">
        <ele>941</ele>
        <time>2024-11-05T07:54:30Z</time>
      </trkpt>
      <trkpt lat="45.96607" lon="3.64117">
        <ele>941</ele>
        <time>2024-11-05T07:54:53Z</time>
      </trkpt>
      <trkpt lat="45.9659" lon="3.63973">
        <ele>932</ele>
        <time>2024-11-05T07:57:08Z</time>
      </trkpt>
      <trkpt lat="45.96423" lon="3.63785">
        <ele>905</ele>
        <time>2024-11-05T08:01:51Z</time>
      </trkpt>
      <trkpt lat="45.96352" lon="3.63725">
        <ele>894</ele>
        <time>2024-11-05T08:03:41Z</time>
      </trkpt>
      <trkpt lat="45.96294" lon="3.63626">
        <ele>890</ele>
        <time>2024-11-05T08:05:41Z</time>
      </trkpt>
      <trkpt lat="45.96189" lon="3.63465">
        <ele>883</ele>
        <time>2024-11-05T08:09:06Z</time>
      </trkpt>
      <trkpt lat="45.96138" lon="3.6334">
        <ele>874</ele>
        <time>2024-11-05T08:11:20Z</time>
      </trkpt>
      <trkpt lat="45.96101" lon="3.63235">
        <ele>873</ele>
        <time>2024-11-05T08:13:10Z</time>
      </trkpt>
      <trkpt lat="45.96071" lon="3.63203">
        <ele>880</ele>
        <time>2024-11-05T08:13:59Z</time>
      </trkpt>
      <trkpt lat="45.95942" lon="3.63169">
        <ele>885</ele>
        <time>2024-11-05T08:16:54Z</time>
      </trkpt>
      <trkpt lat="45.95918" lon="3.63104">
        <ele>887</ele>
        <time>2024-11-05T08:18:03Z</time>
      </trkpt>
      <trkpt lat="45.95967" lon="3.63053">
        <ele>890</ele>
        <time>2024-11-05T08:19:23Z</time>
      </trkpt>
    </trkseg>
  </trk>
</gpx>